Time;durP1;ratioP1;P1;durP2;ratioP2;P2;SDS_P1;SDS_P2;PMS_P1;PMS_P2;Temp;Humidity;BMP_temperature;BMP_pressure;BME280_temperature;BME280_humidity;BME280_pressure;Samples;Min_cycle;Max_cycle;Signal;HPM_P1;HPM_P2
2021/12/18 00:00:40;;;;;;;1.38;0.40;;;9.80;94.80;;;;;;4819184;29;20454;-76
2021/12/18 00:03:11;;;;;;;1.75;0.45;;;9.80;95.10;;;;;;4810648;29;20133;-76
2021/12/18 00:05:38;;;;;;;1.42;0.50;;;9.80;94.80;;;;;;4794291;29;20118;-76
2021/12/18 00:08:05;;;;;;;1.42;0.50;;;9.80;94.80;;;;;;4789724;29;20058;-76
2021/12/18 00:10:33;;;;;;;1.42;0.50;;;9.80;94.80;;;;;;4810275;29;20043;-76
2021/12/18 00:13:00;;;;;;;1.98;0.52;;;9.80;94.80;;;;;;4802427;29;20374;-76
2021/12/18 00:15:29;;;;;;;1.10;0.40;;;9.80;94.80;;;;;;4803415;29;20047;-76
2021/12/18 00:17:57;;;;;;;1.80;0.52;;;9.80;94.80;;;;;;4798947;29;20643;-76
2021/12/18 00:20:26;;;;;;;1.52;0.60;;;9.80;94.80;;;;;;4806751;29;20047;-76
2021/12/18 00:22:53;;;;;;;1.58;0.50;;;9.80;94.80;;;;;;4806143;29;20137;-76
2021/12/18 00:25:21;;;;;;;1.50;0.60;;;9.80;94.80;;;;;;4804941;29;20133;-76
2021/12/18 00:27:48;;;;;;;1.35;0.47;;;9.80;94.80;;;;;;4806995;29;20077;-76
2021/12/18 00:30:16;;;;;;;1.52;0.35;;;9.80;94.70;;;;;;4806343;29;20471;-76
2021/12/18 00:32:43;;;;;;;1.45;0.55;;;9.80;94.70;;;;;;4805680;29;20236;-76
2021/12/18 00:35:10;;;;;;;1.23;0.40;;;9.80;94.70;;;;;;4807431;29;20039;-76
2021/12/18 00:37:37;;;;;;;2.13;0.60;;;9.80;94.70;;;;;;4808360;29;20065;-76
2021/12/18 00:40:09;;;;;;;1.85;0.50;;;9.80;95.00;;;;;;4794353;29;20198;-76
2021/12/18 00:45:09;;;;;;;1.90;0.52;;;9.70;94.80;;;;;;4805120;29;20750;-76
2021/12/18 00:47:37;;;;;;;1.67;0.60;;;9.80;94.80;;;;;;4792908;29;20083;-76
2021/12/18 00:50:07;;;;;;;2.15;0.70;;;9.70;94.80;;;;;;4806037;29;20050;-76
2021/12/18 00:52:40;;;;;;;1.38;0.50;;;9.80;94.80;;;;;;4822080;29;20062;-76
2021/12/18 00:55:08;;;;;;;1.58;0.47;;;9.80;94.80;;;;;;4806283;29;20743;-76
2021/12/18 00:57:36;;;;;;;1.30;0.40;;;9.80;94.90;;;;;;4809254;29;20062;-76
2021/12/18 01:00:07;;;;;;;1.08;0.40;;;9.80;94.90;;;;;;4807539;29;20038;-76
2021/12/18 01:02:36;;;;;;;2.10;0.73;;;9.80;94.80;;;;;;4822622;29;20679;-76
2021/12/18 01:05:05;;;;;;;1.27;0.40;;;9.80;94.80;;;;;;4807069;29;20056;-76
2021/12/18 01:07:33;;;;;;;1.13;0.43;;;9.80;94.80;;;;;;4810516;29;20103;-76
2021/12/18 01:10:18;;;;;;;1.55;0.40;;;9.80;94.90;;;;;;4821152;29;20050;-76
2021/12/18 01:12:48;;;;;;;2.60;0.60;;;9.80;94.90;;;;;;4795540;29;20108;-76
2021/12/18 01:15:24;;;;;;;1.65;0.60;;;9.80;94.90;;;;;;4806140;29;20050;-76
2021/12/18 01:23:23;;;;;;;1.02;0.30;;;9.80;94.90;;;;;;4814700;29;20046;-76
2021/12/18 01:25:53;;;;;;;1.60;0.43;;;9.80;94.90;;;;;;4822194;29;20115;-76
2021/12/18 01:28:20;;;;;;;1.38;0.50;;;9.80;94.90;;;;;;4812104;29;20066;-76
2021/12/18 01:30:47;;;;;;;0.90;0.30;;;9.80;94.90;;;;;;4803433;29;20520;-76
2021/12/18 01:33:14;;;;;;;0.65;0.30;;;9.80;94.90;;;;;;4806733;29;20111;-74
2021/12/18 01:35:43;;;;;;;0.77;0.20;;;9.80;94.90;;;;;;4808853;29;20055;-75
2021/12/18 01:38:11;;;;;;;1.20;0.43;;;9.80;94.80;;;;;;4803702;29;20062;-75
2021/12/18 01:40:38;;;;;;;1.08;0.40;;;9.80;94.80;;;;;;4808714;29;20747;-74
2021/12/18 01:51:33;;;;;;;2.22;0.63;;;9.70;94.80;;;;;;4810352;29;20803;-75
2021/12/18 01:54:01;;;;;;;1.67;0.55;;;9.70;94.80;;;;;;4824928;29;20447;-75
2021/12/18 01:56:28;;;;;;;1.52;0.32;;;9.70;94.80;;;;;;4824296;29;20058;-75
2021/12/18 01:58:56;;;;;;;1.45;0.60;;;9.70;94.80;;;;;;4808627;29;20043;-75
2021/12/18 02:01:23;;;;;;;1.83;0.50;;;9.80;94.90;;;;;;4808781;29;20046;-75
2021/12/18 02:03:50;;;;;;;1.50;0.52;;;9.70;94.80;;;;;;4790013;29;20138;-76
2021/12/18 02:06:18;;;;;;;1.23;0.45;;;9.70;94.80;;;;;;4788371;29;20050;-76
2021/12/18 02:08:46;;;;;;;1.70;0.50;;;9.70;94.80;;;;;;4794669;29;20066;-75
2021/12/18 02:22:00;;;;;;;1.98;0.55;;;9.70;94.90;;;;;;4805605;29;20039;-77
2021/12/18 02:24:29;;;;;;;1.35;0.50;;;9.70;94.90;;;;;;4809065;29;20719;-76
2021/12/18 02:26:58;;;;;;;1.58;0.50;;;9.80;94.90;;;;;;4793711;29;20451;-76
2021/12/18 02:29:25;;;;;;;1.95;0.60;;;9.70;94.80;;;;;;4806122;29;20459;-76
2021/12/18 02:31:52;;;;;;;1.52;0.40;;;9.70;94.80;;;;;;4806937;29;20476;-76
2021/12/18 02:34:26;;;;;;;1.30;0.43;;;9.70;94.90;;;;;;4821952;29;20127;-76
2021/12/18 02:36:59;;;;;;;1.63;0.35;;;9.70;94.90;;;;;;4809775;29;20073;-76
2021/12/18 02:42:23;;;;;;;1.50;0.50;;;9.70;94.90;;;;;;4834863;29;20053;-76
2021/12/18 02:44:51;;;;;;;1.85;0.50;;;9.60;94.90;;;;;;4808085;29;20078;-76
2021/12/18 02:47:18;;;;;;;2.22;0.45;;;9.70;94.90;;;;;;4809445;29;20058;-76
2021/12/18 02:49:51;;;;;;;1.65;0.50;;;9.70;94.90;;;;;;4777835;29;21402;-76
2021/12/18 02:52:19;;;;;;;;;;;9.70;94.90;;;;;;4825307;29;20390;-76
2021/12/18 02:54:46;;;;;;;1.05;0.30;;;9.60;95.10;;;;;;4808343;29;19933;-76
2021/12/18 02:57:14;;;;;;;1.63;0.38;;;9.60;94.90;;;;;;4815129;29;20797;-76
2021/12/18 02:59:47;;;;;;;1.02;0.50;;;9.60;94.90;;;;;;4821773;29;20046;-75
2021/12/18 03:02:16;;;;;;;1.05;0.32;;;9.70;94.90;;;;;;4806055;29;20055;-76
2021/12/18 03:04:52;;;;;;;1.02;0.28;;;9.70;94.90;;;;;;4808012;29;20066;-75
2021/12/18 03:07:23;;;;;;;1.77;0.60;;;9.60;94.90;;;;;;4792824;29;20138;-76
2021/12/18 03:23:39;;;;;;;1.45;0.32;;;9.60;94.90;;;;;;4808281;29;20046;-75
2021/12/18 03:26:06;;;;;;;1.92;0.68;;;9.60;94.90;;;;;;4809609;29;20058;-76
2021/12/18 03:28:33;;;;;;;1.35;0.40;;;9.70;94.90;;;;;;4819412;29;20537;-76
2021/12/18 03:31:00;;;;;;;1.73;0.40;;;9.60;94.90;;;;;;4798867;29;20058;-76
2021/12/18 03:33:28;;;;;;;2.50;0.50;;;9.60;94.90;;;;;;4813601;29;20137;-76
2021/12/18 03:35:56;;;;;;;2.40;0.60;;;9.60;94.90;;;;;;4808003;29;20544;-76
2021/12/18 03:38:24;;;;;;;0.82;0.30;;;9.60;94.90;;;;;;4795072;29;20524;-76
2021/12/18 03:40:51;;;;;;;1.48;0.32;;;9.60;94.90;;;;;;4817541;29;20145;-76
2021/12/18 03:43:18;;;;;;;2.55;0.70;;;9.60;94.90;;;;;;4794566;29;20133;-76
2021/12/18 03:45:45;;;;;;;2.70;0.52;;;9.60;94.90;;;;;;4823928;29;20055;-76
2021/12/18 03:48:12;;;;;;;2.42;0.73;;;9.60;94.80;;;;;;4808818;29;20096;-76
2021/12/18 03:50:39;;;;;;;1.38;0.50;;;9.50;95.10;;;;;;4808931;29;20189;-76
2021/12/18 03:53:07;;;;;;;2.25;0.63;;;9.50;94.90;;;;;;4793147;29;20863;-76
2021/12/18 03:55:34;;;;;;;2.60;0.70;;;9.50;94.90;;;;;;4821713;29;20101;-76
2021/12/18 03:58:01;;;;;;;1.63;0.50;;;9.50;94.90;;;;;;4811962;29;20218;-76
2021/12/18 04:00:28;;;;;;;1.17;0.50;;;9.50;94.90;;;;;;4809733;29;20070;-76
2021/12/18 04:02:55;;;;;;;1.88;0.70;;;9.50;94.90;;;;;;4794767;29;20069;-76
2021/12/18 04:05:22;;;;;;;2.03;0.50;;;9.50;94.90;;;;;;4804979;29;20058;-76
2021/12/18 04:07:50;;;;;;;1.83;0.47;;;9.40;94.90;;;;;;4808790;29;20058;-77
2021/12/18 04:10:18;;;;;;;1.90;0.50;;;9.40;94.90;;;;;;4824111;29;20118;-77
2021/12/18 04:12:46;;;;;;;2.03;0.63;;;9.40;95.00;;;;;;4808880;29;20054;-77
2021/12/18 04:15:13;;;;;;;2.38;0.60;;;9.30;94.90;;;;;;4808574;29;20038;-77
2021/12/18 04:17:40;;;;;;;2.05;0.60;;;9.30;95.00;;;;;;4822918;29;20059;-77
2021/12/18 04:20:09;;;;;;;1.40;0.40;;;9.30;94.90;;;;;;4799844;29;20061;-76
2021/12/18 04:22:36;;;;;;;1.77;0.40;;;9.30;95.00;;;;;;4807233;29;20070;-76
2021/12/18 04:25:04;;;;;;;1.58;0.35;;;9.20;95.00;;;;;;4805484;29;20054;-76
2021/12/18 04:27:31;;;;;;;1.00;0.20;;;9.30;95.00;;;;;;4807954;29;20718;-76
2021/12/18 04:29:58;;;;;;;1.73;0.50;;;9.30;95.00;;;;;;4806500;29;20134;-76
2021/12/18 04:32:25;;;;;;;0.70;0.20;;;9.30;95.00;;;;;;4807207;29;20667;-76
2021/12/18 04:34:52;;;;;;;0.93;0.30;;;9.30;95.00;;;;;;4806212;29;20090;-76
2021/12/18 04:37:20;;;;;;;1.35;0.40;;;9.30;95.00;;;;;;4823418;29;20050;-76
2021/12/18 04:39:47;;;;;;;1.88;0.50;;;9.20;95.00;;;;;;4805109;29;20039;-76
2021/12/18 04:42:14;;;;;;;1.33;0.30;;;9.30;95.00;;;;;;4806250;29;20488;-76
2021/12/18 04:44:42;;;;;;;1.42;0.22;;;9.30;95.00;;;;;;4802036;29;20097;-76
2021/12/18 04:47:09;;;;;;;0.80;0.22;;;9.30;95.00;;;;;;4805848;29;20181;-77
2021/12/18 04:49:36;;;;;;;0.93;0.30;;;9.30;95.00;;;;;;4808068;29;20055;-76
2021/12/18 04:52:04;;;;;;;1.15;0.38;;;9.30;95.00;;;;;;4808228;29;20121;-76
2021/12/18 04:54:31;;;;;;;2.60;0.30;;;9.30;95.00;;;;;;4822670;29;20054;-76
2021/12/18 04:56:58;;;;;;;0.70;0.30;;;9.30;95.00;;;;;;4807544;29;20058;-77
2021/12/18 04:59:25;;;;;;;1.15;0.35;;;9.30;95.00;;;;;;4799522;29;20051;-76
2021/12/18 05:01:53;;;;;;;1.90;0.50;;;9.30;95.00;;;;;;4821832;29;20464;-76
2021/12/18 05:04:20;;;;;;;2.03;0.47;;;9.30;95.00;;;;;;4808070;29;20580;-76
2021/12/18 05:06:52;;;;;;;2.10;0.57;;;9.30;95.00;;;;;;4820371;29;20066;-76
2021/12/18 05:09:20;;;;;;;1.40;0.40;;;9.30;95.00;;;;;;4792458;29;20082;-77
2021/12/18 05:11:48;;;;;;;2.20;0.65;;;9.30;95.00;;;;;;4821551;29;20665;-76
2021/12/18 05:14:15;;;;;;;1.88;0.63;;;9.30;95.00;;;;;;4800883;29;20058;-76
2021/12/18 05:16:43;;;;;;;1.83;0.50;;;9.30;95.00;;;;;;4819631;29;20054;-76
2021/12/18 05:19:10;;;;;;;1.48;0.52;;;9.30;95.00;;;;;;4777928;29;20054;-77
2021/12/18 05:21:37;;;;;;;2.95;0.95;;;9.20;95.00;;;;;;4824306;29;20454;-76
2021/12/18 05:24:04;;;;;;;1.65;0.47;;;9.20;95.00;;;;;;4796723;29;20046;-76
2021/12/18 05:26:32;;;;;;;1.88;0.52;;;9.20;95.00;;;;;;4824201;29;20047;-76
2021/12/18 05:28:58;;;;;;;2.80;0.50;;;9.20;95.10;;;;;;4813984;29;20054;-76
2021/12/18 05:31:25;;;;;;;1.27;0.47;;;9.20;95.10;;;;;;4777314;29;20134;-76
2021/12/18 05:33:57;;;;;;;1.58;0.47;;;9.20;95.10;;;;;;4816937;29;20142;-76
2021/12/18 05:36:36;;;;;;;1.67;0.40;;;9.20;95.10;;;;;;4816244;29;20057;-76
2021/12/18 05:39:09;;;;;;;1.25;0.40;;;9.20;95.10;;;;;;4825564;29;20134;-77
2021/12/18 05:41:37;;;;;;;1.42;0.30;;;9.20;95.10;;;;;;4826789;29;20119;-77
2021/12/18 05:44:05;;;;;;;2.28;0.52;;;9.20;95.10;;;;;;4828228;29;20054;-77
2021/12/18 05:46:32;;;;;;;1.75;0.40;;;9.20;95.10;;;;;;4798507;29;20043;-77
2021/12/18 05:49:00;;;;;;;1.27;0.40;;;9.20;95.10;;;;;;4812202;29;20457;-76
2021/12/18 05:51:27;;;;;;;1.92;0.47;;;9.20;95.10;;;;;;4825602;29;20066;-76
2021/12/18 05:53:54;;;;;;;1.10;0.50;;;9.20;95.30;;;;;;4780643;29;20154;-77
2021/12/18 05:56:22;;;;;;;1.50;0.40;;;9.20;95.10;;;;;;4807465;29;20072;-77
2021/12/18 05:58:49;;;;;;;1.67;0.47;;;9.20;95.00;;;;;;4782418;29;20061;-77
2021/12/18 06:01:18;;;;;;;1.00;0.22;;;9.20;95.00;;;;;;4812085;29;21283;-76
2021/12/18 06:03:46;;;;;;;1.48;0.30;;;9.20;95.00;;;;;;4826605;29;20054;-76
2021/12/18 06:06:16;;;;;;;1.63;0.60;;;9.20;95.00;;;;;;4813727;29;20249;-77
2021/12/18 06:08:43;;;;;;;1.77;0.25;;;9.20;95.10;;;;;;4803468;29;20071;-76
2021/12/18 06:11:14;;;;;;;0.73;0.10;;;9.20;95.10;;;;;;4811083;29;20095;-77
2021/12/18 06:13:44;;;;;;;1.38;0.43;;;9.20;95.10;;;;;;4810448;29;20046;-78
2021/12/18 06:16:12;;;;;;;1.05;0.43;;;9.20;95.10;;;;;;4807808;29;20062;-77
2021/12/18 06:18:42;;;;;;;0.73;0.20;;;9.20;95.10;;;;;;4809929;29;20165;-77
2021/12/18 06:21:09;;;;;;;0.82;0.30;;;9.20;95.20;;;;;;4810446;29;20138;-77
2021/12/18 06:23:36;;;;;;;0.32;0.10;;;9.20;95.10;;;;;;4810723;29;20648;-76
2021/12/18 06:26:04;;;;;;;0.50;0.22;;;9.10;95.10;;;;;;4816535;29;20046;-77
2021/12/18 06:28:31;;;;;;;1.23;0.20;;;9.20;95.10;;;;;;4823682;29;20436;-77
2021/12/18 06:30:58;;;;;;;1.10;0.20;;;9.10;95.40;;;;;;4807191;29;20121;-76
2021/12/18 06:33:25;;;;;;;0.38;0.13;;;9.10;95.10;;;;;;4794986;29;20057;-76
2021/12/18 06:35:53;;;;;;;0.50;0.10;;;9.10;95.10;;;;;;4810227;29;20046;-79
2021/12/18 06:38:20;;;;;;;0.95;0.35;;;9.20;95.10;;;;;;4810264;29;20047;-76
2021/12/18 06:40:47;;;;;;;0.88;0.20;;;9.20;95.10;;;;;;4808424;29;20074;-78
2021/12/18 06:43:15;;;;;;;0.60;0.20;;;9.10;95.10;;;;;;4795103;29;20077;-76
2021/12/18 06:45:44;;;;;;;0.50;0.10;;;9.10;95.10;;;;;;4799219;29;20089;-79
2021/12/18 06:48:11;;;;;;;0.85;0.10;;;9.10;95.10;;;;;;4824620;29;20440;-79
2021/12/18 06:50:39;;;;;;;0.43;0.10;;;9.10;95.10;;;;;;4828964;29;20357;-79
2021/12/18 06:53:10;;;;;;;0.57;0.13;;;9.00;95.10;;;;;;4822018;29;20141;-79
2021/12/18 06:55:37;;;;;;;0.65;0.13;;;9.00;95.10;;;;;;4807764;29;20039;-78
2021/12/18 06:58:04;;;;;;;0.40;0.17;;;9.00;95.10;;;;;;4810219;29;20054;-78
2021/12/18 07:00:31;;;;;;;0.40;0.10;;;8.90;95.10;;;;;;4796284;29;20078;-80
2021/12/18 07:03:01;;;;;;;0.55;0.22;;;8.90;95.10;;;;;;4809433;29;20043;-80
2021/12/18 07:05:31;;;;;;;0.40;0.10;;;8.90;95.10;;;;;;4808255;29;20058;-79
2021/12/18 07:08:00;;;;;;;0.65;0.20;;;8.90;95.10;;;;;;4816971;29;20061;-79
2021/12/18 07:10:27;;;;;;;0.50;0.10;;;8.90;95.10;;;;;;4809762;29;20064;-79
2021/12/18 07:12:54;;;;;;;0.73;0.10;;;8.80;95.10;;;;;;4796720;29;20051;-79
2021/12/18 07:15:21;;;;;;;0.30;0.10;;;8.80;95.10;;;;;;4792241;29;20145;-79
2021/12/18 07:17:49;;;;;;;0.40;0.10;;;8.80;95.10;;;;;;4800200;29;20069;-79
2021/12/18 07:20:16;;;;;;;0.30;0.10;;;8.70;95.10;;;;;;4810294;29;20075;-79
2021/12/18 07:22:45;;;;;;;0.30;0.10;;;8.70;95.20;;;;;;4796598;29;20135;-80
2021/12/18 07:25:12;;;;;;;0.50;0.10;;;8.70;95.20;;;;;;4825134;29;20050;-77
2021/12/18 07:27:39;;;;;;;0.28;0.00;;;8.70;95.20;;;;;;4806342;29;20131;-76
2021/12/18 07:30:08;;;;;;;0.52;0.10;;;8.80;95.20;;;;;;4807670;29;20051;-76
2021/12/18 07:32:35;;;;;;;0.30;0.00;;;8.70;95.20;;;;;;4812412;29;20636;-77
2021/12/18 07:35:03;;;;;;;0.10;0.00;;;8.70;95.10;;;;;;4802731;29;20527;-76
2021/12/18 07:37:30;;;;;;;0.40;0.10;;;8.70;95.20;;;;;;4809301;29;20608;-76
2021/12/18 07:39:57;;;;;;;0.70;0.10;;;8.60;95.10;;;;;;4796207;29;20050;-77
2021/12/18 07:42:24;;;;;;;0.10;0.00;;;8.60;95.10;;;;;;4820742;29;20055;-76
2021/12/18 07:44:52;;;;;;;0.20;0.00;;;8.60;95.40;;;;;;4809658;29;20755;-77
2021/12/18 07:47:19;;;;;;;0.25;0.10;;;8.60;95.10;;;;;;4805102;29;20453;-76
2021/12/18 07:49:46;;;;;;;0.10;0.00;;;8.60;95.10;;;;;;4790495;29;20107;-76
2021/12/18 07:52:13;;;;;;;0.30;0.00;;;8.50;95.10;;;;;;4807367;29;21186;-76
2021/12/18 07:54:41;;;;;;;0.32;0.10;;;8.50;95.10;;;;;;4807198;29;20050;-77
2021/12/18 07:57:08;;;;;;;0.30;0.10;;;8.50;95.10;;;;;;4794101;29;20089;-76
2021/12/18 07:59:35;;;;;;;0.38;0.10;;;8.50;95.10;;;;;;4825634;29;20046;-76
2021/12/18 08:02:04;;;;;;;0.20;0.00;;;8.40;95.10;;;;;;4806910;29;20441;-76
2021/12/18 08:04:34;;;;;;;0.17;0.08;;;8.50;95.20;;;;;;4807817;29;20047;-76
2021/12/18 08:07:02;;;;;;;0.55;0.10;;;8.50;95.20;;;;;;4790420;29;20055;-77
2021/12/18 08:09:29;;;;;;;0.20;0.00;;;8.50;95.20;;;;;;4793860;29;20050;-76
2021/12/18 08:11:56;;;;;;;0.28;0.10;;;8.50;95.20;;;;;;4793705;29;20055;-76
2021/12/18 08:14:24;;;;;;;0.38;0.00;;;8.50;95.20;;;;;;4815711;29;20115;-77
2021/12/18 08:16:51;;;;;;;0.30;0.00;;;8.50;95.10;;;;;;4805080;29;20142;-76
2021/12/18 08:19:21;;;;;;;0.10;0.00;;;8.50;95.10;;;;;;4807728;29;20099;-76
2021/12/18 08:21:48;;;;;;;0.17;0.03;;;8.50;95.10;;;;;;4796021;29;20054;-76
2021/12/18 08:24:18;;;;;;;0.55;0.10;;;8.50;95.10;;;;;;4803785;29;20065;-76
2021/12/18 08:26:45;;;;;;;0.00;0.00;;;8.50;95.10;;;;;;4809720;29;20070;-77
2021/12/18 08:29:12;;;;;;;0.10;0.10;;;8.50;95.10;;;;;;4809353;29;20066;-77
2021/12/18 08:31:39;;;;;;;0.43;0.30;;;8.50;95.10;;;;;;4820861;29;20065;-76
2021/12/18 08:34:06;;;;;;;0.15;0.00;;;8.50;95.00;;;;;;4806302;29;20775;-76
2021/12/18 08:36:36;;;;;;;0.22;0.10;;;8.50;95.10;;;;;;4805043;29;20142;-76
2021/12/18 08:39:03;;;;;;;0.13;0.00;;;8.60;95.10;;;;;;4808346;29;20058;-76
2021/12/18 08:41:32;;;;;;;0.20;0.10;;;8.60;95.10;;;;;;4805214;29;20073;-77
2021/12/18 08:43:59;;;;;;;0.10;0.00;;;8.60;95.10;;;;;;4804958;29;20046;-76
2021/12/18 08:46:26;;;;;;;0.00;0.00;;;8.60;95.00;;;;;;4823107;29;20126;-76
2021/12/18 08:48:53;;;;;;;0.10;0.10;;;8.60;95.00;;;;;;4791740;29;20095;-76
2021/12/18 08:51:20;;;;;;;0.25;0.00;;;8.60;95.00;;;;;;4815118;29;20051;-76
2021/12/18 08:53:47;;;;;;;0.30;0.10;;;8.60;94.90;;;;;;4789676;29;20139;-76
2021/12/18 08:56:14;;;;;;;0.10;0.00;;;8.60;95.00;;;;;;4822167;29;20578;-77
2021/12/18 08:58:41;;;;;;;0.05;0.00;;;8.60;95.00;;;;;;4808162;29;20214;-76
2021/12/18 09:01:08;;;;;;;0.40;0.20;;;8.70;95.00;;;;;;4812099;29;20118;-76
2021/12/18 09:03:35;;;;;;;0.63;0.10;;;8.70;95.20;;;;;;4807014;29;20054;-76
2021/12/18 09:06:03;;;;;;;0.17;0.00;;;8.70;94.90;;;;;;4809269;29;20059;-77
2021/12/18 09:08:30;;;;;;;0.30;0.00;;;8.70;94.90;;;;;;4792772;29;20552;-76
2021/12/18 09:10:57;;;;;;;0.40;0.10;;;8.70;94.90;;;;;;4807981;29;20042;-76
2021/12/18 09:13:24;;;;;;;0.20;0.10;;;8.70;94.90;;;;;;4809159;29;20066;-76
2021/12/18 09:15:51;;;;;;;0.40;0.10;;;8.70;94.90;;;;;;4802909;29;21186;-76
2021/12/18 09:18:18;;;;;;;0.52;0.20;;;8.70;94.90;;;;;;4791513;29;20564;-81
2021/12/18 09:20:46;;;;;;;0.40;0.10;;;8.60;94.80;;;;;;4807091;29;20109;-76
2021/12/18 09:23:17;;;;;;;0.50;0.15;;;8.60;94.90;;;;;;4820864;29;20055;-77
2021/12/18 09:25:45;;;;;;;0.10;0.08;;;8.60;94.90;;;;;;4807566;29;20054;-76
2021/12/18 09:28:12;;;;;;;0.40;0.10;;;8.60;94.90;;;;;;4814325;29;20055;-76
2021/12/18 09:30:40;;;;;;;0.80;0.15;;;8.60;94.90;;;;;;4800119;29;20466;-77
2021/12/18 09:33:11;;;;;;;0.40;0.10;;;8.50;94.90;;;;;;4823169;29;20113;-76
2021/12/18 09:35:38;;;;;;;0.45;0.10;;;8.50;94.80;;;;;;4820192;29;20134;-76
2021/12/18 09:38:06;;;;;;;0.68;0.10;;;8.40;94.90;;;;;;4806064;29;20100;-76
2021/12/18 09:40:34;;;;;;;0.13;0.00;;;8.40;95.00;;;;;;4812993;29;20485;-76
2021/12/18 09:43:01;;;;;;;0.10;0.00;;;8.40;95.00;;;;;;4824189;29;20066;-76
2021/12/18 09:45:29;;;;;;;0.55;0.10;;;8.40;95.00;;;;;;4807426;29;20046;-76
2021/12/18 09:47:57;;;;;;;0.28;0.10;;;8.40;95.00;;;;;;4791866;29;20050;-76
2021/12/18 09:50:27;;;;;;;0.20;0.10;;;8.40;95.00;;;;;;4803194;29;20143;-77
2021/12/18 09:52:54;;;;;;;0.20;0.00;;;8.50;94.90;;;;;;4789754;29;20061;-76
2021/12/18 09:55:22;;;;;;;0.68;0.20;;;8.50;94.90;;;;;;4790817;29;20115;-76
2021/12/18 09:57:49;;;;;;;0.10;0.03;;;8.50;94.80;;;;;;4799677;29;20153;-77
2021/12/18 10:00:20;;;;;;;0.52;0.10;;;8.50;94.80;;;;;;4824044;29;20058;-76
2021/12/18 10:02:47;;;;;;;0.20;0.10;;;8.50;94.80;;;;;;4823384;29;20054;-76
2021/12/18 10:05:29;;;;;;;0.40;0.10;;;8.40;94.80;;;;;;4825056;29;20138;-75
2021/12/18 10:08:16;;;;;;;0.40;0.00;;;8.50;94.90;;;;;;4818452;29;20640;-76
2021/12/18 10:11:06;;;;;;;0.20;0.10;;;8.50;94.80;;;;;;4808552;29;20054;-76
2021/12/18 10:14:09;;;;;;;0.35;0.10;;;8.50;94.70;;;;;;4813803;29;20502;-77
2021/12/18 10:16:44;;;;;;;0.52;0.10;;;8.50;94.70;;;;;;4827191;29;20102;-76
2021/12/18 10:19:35;;;;;;;0.32;0.10;;;8.50;94.70;;;;;;4810238;29;20059;-76
2021/12/18 10:22:10;;;;;;;0.57;0.10;;;8.40;94.60;;;;;;4822152;29;20142;-77
2021/12/18 10:24:41;;;;;;;0.98;0.10;;;8.40;94.70;;;;;;4809546;29;20058;-76
2021/12/18 10:27:26;;;;;;;0.28;0.10;;;8.40;94.80;;;;;;4801847;29;20082;-75
2021/12/18 10:30:12;;;;;;;0.93;0.28;;;8.40;94.70;;;;;;4808528;29;20042;-77
2021/12/18 10:32:39;;;;;;;0.20;0.10;;;8.40;94.60;;;;;;4808862;29;20055;-76
2021/12/18 10:35:09;;;;;;;0.50;0.20;;;8.30;94.70;;;;;;4779782;29;20159;-79
2021/12/18 10:37:36;;;;;;;0.75;0.30;;;8.40;94.80;;;;;;4809539;29;20647;-77
2021/12/18 10:40:10;;;;;;;0.68;0.10;;;8.40;94.70;;;;;;4792304;29;20207;-77
2021/12/18 10:42:43;;;;;;;0.20;0.10;;;8.50;94.70;;;;;;4810696;29;20095;-77
2021/12/18 10:45:17;;;;;;;0.70;0.20;;;8.50;94.60;;;;;;4808787;29;20334;-77
2021/12/18 10:47:54;;;;;;;0.40;0.13;;;8.60;94.50;;;;;;4826178;29;20062;-75
2021/12/18 10:50:28;;;;;;;0.25;0.10;;;8.60;94.50;;;;;;4818342;29;20088;-79
2021/12/18 10:52:59;;;;;;;0.28;0.10;;;8.60;94.40;;;;;;4798106;29;20054;-80
2021/12/18 10:55:34;;;;;;;0.30;0.10;;;8.50;94.40;;;;;;4824301;29;20050;-79
2021/12/18 10:58:02;;;;;;;0.43;0.10;;;8.50;94.50;;;;;;4804317;29;20051;-77
2021/12/18 11:00:43;;;;;;;0.40;0.10;;;8.50;94.50;;;;;;4790606;29;20516;-75
2021/12/18 11:03:21;;;;;;;0.73;0.10;;;8.60;94.50;;;;;;4821132;29;20055;-77
2021/12/18 11:06:09;;;;;;;0.15;0.05;;;8.60;94.40;;;;;;4818648;29;20108;-76
2021/12/18 11:08:51;;;;;;;0.32;0.10;;;8.70;94.40;;;;;;4808254;29;20050;-76
2021/12/18 11:14:09;;;;;;;0.45;0.10;;;8.70;94.30;;;;;;4817118;29;20500;-77
2021/12/18 11:16:37;;;;;;;;;;;8.70;94.30;;;;;;4805456;29;20493;-77
2021/12/18 11:19:13;;;;;;;0.20;0.10;;;8.70;94.30;;;;;;4804329;29;19929;-77
2021/12/18 11:21:50;;;;;;;0.32;0.10;;;8.70;94.30;;;;;;4811342;29;20043;-76
2021/12/18 11:24:19;;;;;;;0.17;0.10;;;8.70;94.30;;;;;;4805433;29;20133;-76
2021/12/18 11:27:03;;;;;;;0.73;0.10;;;8.70;94.30;;;;;;4807834;29;20694;-76
2021/12/18 11:29:40;;;;;;;0.28;0.00;;;8.70;94.20;;;;;;4824675;29;20058;-76
2021/12/18 11:32:09;;;;;;;0.22;0.00;;;8.70;94.30;;;;;;4816414;29;20047;-77
2021/12/18 11:34:38;;;;;;;0.10;0.10;;;8.70;94.20;;;;;;4821697;29;20564;-77
2021/12/18 11:37:09;;;;;;;0.17;0.05;;;8.70;94.20;;;;;;4807557;29;20074;-77
2021/12/18 11:39:37;;;;;;;0.10;0.00;;;8.80;94.20;;;;;;4816773;29;20038;-77
2021/12/18 11:42:05;;;;;;;0.40;0.10;;;8.80;94.20;;;;;;4810527;29;20586;-76
2021/12/18 11:44:37;;;;;;;0.50;0.10;;;8.80;94.20;;;;;;4807470;29;20487;-76
2021/12/18 11:47:34;;;;;;;0.30;0.10;;;8.90;94.20;;;;;;4807891;29;20051;-76
2021/12/18 11:50:10;;;;;;;0.22;0.10;;;8.90;94.10;;;;;;4804731;29;20086;-76
2021/12/18 11:52:59;;;;;;;0.47;0.17;;;8.90;94.20;;;;;;4821343;29;20058;-77
2021/12/18 11:55:49;;;;;;;0.50;0.10;;;8.90;94.10;;;;;;4812237;29;20047;-77
2021/12/18 11:58:25;;;;;;;0.70;0.28;;;8.90;94.10;;;;;;4814051;29;20089;-75
2021/12/18 12:00:59;;;;;;;0.73;0.10;;;8.80;94.10;;;;;;4807144;29;21071;-76
2021/12/18 12:03:28;;;;;;;0.52;0.10;;;8.90;94.20;;;;;;4802536;29;20058;-76
2021/12/18 12:05:58;;;;;;;0.55;0.20;;;8.80;94.10;;;;;;4821906;29;20047;-76
2021/12/18 12:08:41;;;;;;;0.22;0.00;;;8.80;94.10;;;;;;4823612;29;20556;-76
2021/12/18 12:11:18;;;;;;;0.43;0.10;;;8.90;94.20;;;;;;4806297;29;20080;-76
2021/12/18 12:14:07;;;;;;;0.63;0.20;;;8.90;94.20;;;;;;4809146;29;20767;-76
2021/12/18 12:16:43;;;;;;;3.45;1.92;;;9.00;94.10;;;;;;4823039;29;20529;-76
2021/12/18 12:19:42;;;;;;;2.35;0.88;;;8.90;94.10;;;;;;4818453;29;20506;-76
2021/12/18 12:22:35;;;;;;;2.80;1.38;;;8.90;94.00;;;;;;4824619;29;20741;-76
2021/12/18 12:25:08;;;;;;;2.75;1.05;;;8.90;94.10;;;;;;4821644;29;20526;-76
2021/12/18 12:27:42;;;;;;;1.95;0.60;;;8.90;94.20;;;;;;4797441;29;20107;-76
2021/12/18 12:30:24;;;;;;;2.40;0.68;;;8.90;94.10;;;;;;4788658;29;20054;-76
2021/12/18 12:33:03;;;;;;;1.45;0.50;;;9.00;94.10;;;;;;4817925;29;20135;-77
2021/12/18 12:36:13;;;;;;;1.08;0.40;;;9.00;94.00;;;;;;4805916;29;20063;-77
2021/12/18 12:38:53;;;;;;;1.05;0.43;;;9.10;94.00;;;;;;4835103;29;20120;-76
2021/12/18 12:41:26;;;;;;;0.88;0.20;;;9.10;94.00;;;;;;4833793;29;20109;-76
2021/12/18 12:43:57;;;;;;;0.30;0.10;;;9.30;93.90;;;;;;4817380;29;20074;-75
2021/12/18 12:46:25;;;;;;;0.52;0.20;;;9.30;93.80;;;;;;4801467;29;20084;-76
2021/12/18 12:49:00;;;;;;;0.17;0.10;;;9.30;93.80;;;;;;4793994;29;20161;-76
2021/12/18 12:52:07;;;;;;;0.45;0.10;;;9.40;93.70;;;;;;4807922;29;20516;-75
2021/12/18 12:55:02;;;;;;;0.10;0.00;;;9.40;93.70;;;;;;4807288;29;20054;-76
2021/12/18 12:57:30;;;;;;;0.13;0.00;;;9.30;93.80;;;;;;4809901;29;20094;-76
2021/12/18 12:59:58;;;;;;;0.40;0.00;;;9.30;93.80;;;;;;4822752;29;20096;-76
2021/12/18 13:02:50;;;;;;;0.80;0.00;;;9.30;93.80;;;;;;4823169;29;21265;-76
2021/12/18 13:05:18;;;;;;;0.15;0.03;;;9.40;93.80;;;;;;4820240;29;20063;-76
2021/12/18 13:07:46;;;;;;;0.10;0.00;;;9.30;93.90;;;;;;4823553;29;20451;-77
2021/12/18 13:10:41;;;;;;;0.13;0.03;;;9.30;93.90;;;;;;4820520;29;20138;-77
2021/12/18 13:13:21;;;;;;;0.43;0.10;;;9.30;93.80;;;;;;4808611;29;20079;-77
2021/12/18 13:15:54;;;;;;;0.22;0.00;;;9.30;93.90;;;;;;4807053;29;20688;-76
2021/12/18 13:18:38;;;;;;;0.28;0.00;;;9.40;93.90;;;;;;4813296;29;20532;-75
2021/12/18 13:21:26;;;;;;;0.22;0.00;;;9.30;93.80;;;;;;4820179;29;20117;-75
2021/12/18 13:24:01;;;;;;;0.10;0.10;;;9.30;93.80;;;;;;4822915;29;20059;-75
2021/12/18 13:26:40;;;;;;;0.25;0.10;;;9.30;93.80;;;;;;4822402;29;20051;-74
2021/12/18 13:29:11;;;;;;;0.20;0.10;;;9.30;93.80;;;;;;4807590;29;20062;-73
2021/12/18 13:31:52;;;;;;;0.22;0.00;;;9.30;94.10;;;;;;4806562;29;20058;-73
2021/12/18 13:34:24;;;;;;;0.10;0.10;;;9.30;93.80;;;;;;4808049;29;20082;-73
2021/12/18 13:37:06;;;;;;;0.05;0.00;;;9.30;93.90;;;;;;4815300;29;20141;-76
2021/12/18 13:39:49;;;;;;;0.13;0.00;;;9.30;93.90;;;;;;4808314;29;20466;-75
2021/12/18 13:42:19;;;;;;;0.55;0.10;;;9.30;93.90;;;;;;4816333;29;20061;-77
2021/12/18 13:44:53;;;;;;;0.82;0.00;;;9.30;93.70;;;;;;4824157;29;20277;-75
2021/12/18 13:47:25;;;;;;;0.20;0.00;;;9.30;93.90;;;;;;4818275;29;20062;-77
2021/12/18 13:50:04;;;;;;;;;;;9.20;93.90;;;;;;4826463;29;20159;-76
2021/12/18 13:52:46;;;;;;;0.10;0.10;;;9.20;93.90;;;;;;4809233;29;19948;-76
2021/12/18 13:55:26;;;;;;;0.20;0.00;;;9.20;94.00;;;;;;4824806;29;20043;-75
2021/12/18 13:58:16;;;;;;;0.40;0.25;;;9.20;93.90;;;;;;4811396;29;20127;-77
2021/12/18 14:00:58;;;;;;;0.25;0.10;;;9.20;93.90;;;;;;4808869;29;20507;-76
2021/12/18 14:03:27;;;;;;;0.17;0.10;;;9.10;93.90;;;;;;4824546;29;20142;-76